sensor_id;sensor_type;location;lat;lon;timestamp;P1;durP1;ratioP1;P2;durP2;ratioP2
21539;SDS011;10931;52.164;5.518;2023-05-21T00:01:02;1.30;;;0.77;;
21539;SDS011;10931;52.164;5.518;2023-05-21T00:03:31;0.70;;;0.50;;
21539;SDS011;10931;52.164;5.518;2023-05-21T00:05:57;0.73;;;0.50;;
21539;SDS011;10931;52.164;5.518;2023-05-21T00:08:25;0.60;;;0.50;;
21539;SDS011;10931;52.164;5.518;2023-05-21T00:10:51;1.70;;;0.93;;
21539;SDS011;10931;52.164;5.518;2023-05-21T00:13:16;1.40;;;0.60;;
21539;SDS011;10931;52.164;5.518;2023-05-21T00:15:42;0.70;;;0.60;;
21539;SDS011;10931;52.164;5.518;2023-05-21T00:18:08;0.50;;;0.50;;
21539;SDS011;10931;52.164;5.518;2023-05-21T00:20:34;0.60;;;0.60;;
21539;SDS011;10931;52.164;5.518;2023-05-21T00:23:01;0.70;;;0.52;;
21539;SDS011;10931;52.164;5.518;2023-05-21T00:25:26;1.05;;;0.50;;
21539;SDS011;10931;52.164;5.518;2023-05-21T00:27:53;1.33;;;0.60;;
21539;SDS011;10931;52.164;5.518;2023-05-21T00:30:19;0.57;;;0.50;;
21539;SDS011;10931;52.164;5.518;2023-05-21T00:32:45;1.70;;;0.50;;
21539;SDS011;10931;52.164;5.518;2023-05-21T00:35:11;1.05;;;0.50;;
21539;SDS011;10931;52.164;5.518;2023-05-21T00:37:43;0.80;;;0.60;;
21539;SDS011;10931;52.164;5.518;2023-05-21T00:40:11;0.55;;;0.52;;
21539;SDS011;10931;52.164;5.518;2023-05-21T00:42:37;1.45;;;0.85;;
21539;SDS011;10931;52.164;5.518;2023-05-21T00:45:03;0.65;;;0.63;;
21539;SDS011;10931;52.164;5.518;2023-05-21T00:47:30;0.90;;;0.50;;
21539;SDS011;10931;52.164;5.518;2023-05-21T00:49:56;1.08;;;0.68;;
21539;SDS011;10931;52.164;5.518;2023-05-21T00:52:22;0.70;;;0.68;;
21539;SDS011;10931;52.164;5.518;2023-05-21T00:54:50;0.82;;;0.70;;
21539;SDS011;10931;52.164;5.518;2023-05-21T00:57:17;0.73;;;0.50;;
21539;SDS011;10931;52.164;5.518;2023-05-21T00:59:45;1.17;;;0.80;;
21539;SDS011;10931;52.164;5.518;2023-05-21T01:02:12;1.85;;;0.70;;
21539;SDS011;10931;52.164;5.518;2023-05-21T01:04:38;0.70;;;0.70;;
21539;SDS011;10931;52.164;5.518;2023-05-21T01:07:04;0.60;;;0.60;;
21539;SDS011;10931;52.164;5.518;2023-05-21T01:09:30;0.63;;;0.63;;
21539;SDS011;10931;52.164;5.518;2023-05-21T01:11:56;1.13;;;0.90;;
21539;SDS011;10931;52.164;5.518;2023-05-21T01:14:24;1.23;;;0.80;;
21539;SDS011;10931;52.164;5.518;2023-05-21T01:16:50;1.40;;;0.73;;
21539;SDS011;10931;52.164;5.518;2023-05-21T01:19:18;1.02;;;0.60;;
21539;SDS011;10931;52.164;5.518;2023-05-21T01:21:49;0.70;;;0.50;;
21539;SDS011;10931;52.164;5.518;2023-05-21T01:24:17;1.05;;;0.73;;
21539;SDS011;10931;52.164;5.518;2023-05-21T01:26:43;1.38;;;0.70;;
21539;SDS011;10931;52.164;5.518;2023-05-21T01:29:10;0.50;;;0.50;;
21539;SDS011;10931;52.164;5.518;2023-05-21T01:34:20;1.35;;;0.80;;
21539;SDS011;10931;52.164;5.518;2023-05-21T01:37:07;0.75;;;0.65;;
21539;SDS011;10931;52.164;5.518;2023-05-21T01:39:43;0.65;;;0.65;;
21539;SDS011;10931;52.164;5.518;2023-05-21T01:42:15;0.60;;;0.60;;
21539;SDS011;10931;52.164;5.518;2023-05-21T01:44:42;0.52;;;0.52;;
21539;SDS011;10931;52.164;5.518;2023-05-21T01:47:12;0.70;;;0.60;;
21539;SDS011;10931;52.164;5.518;2023-05-21T01:49:38;1.15;;;0.70;;
21539;SDS011;10931;52.164;5.518;2023-05-21T01:52:04;0.70;;;0.60;;
21539;SDS011;10931;52.164;5.518;2023-05-21T01:54:30;0.93;;;0.60;;
21539;SDS011;10931;52.164;5.518;2023-05-21T01:56:56;1.45;;;0.70;;
21539;SDS011;10931;52.164;5.518;2023-05-21T01:59:22;1.85;;;0.70;;
21539;SDS011;10931;52.164;5.518;2023-05-21T02:01:47;1.05;;;0.60;;
21539;SDS011;10931;52.164;5.518;2023-05-21T02:04:13;1.13;;;0.80;;
21539;SDS011;10931;52.164;5.518;2023-05-21T02:06:39;0.80;;;0.80;;
21539;SDS011;10931;52.164;5.518;2023-05-21T02:09:05;0.70;;;0.70;;
21539;SDS011;10931;52.164;5.518;2023-05-21T02:11:32;1.05;;;0.80;;
21539;SDS011;10931;52.164;5.518;2023-05-21T02:13:58;0.90;;;0.70;;
21539;SDS011;10931;52.164;5.518;2023-05-21T02:16:24;0.93;;;0.70;;
21539;SDS011;10931;52.164;5.518;2023-05-21T02:18:58;3.60;;;0.93;;
21539;SDS011;10931;52.164;5.518;2023-05-21T02:21:24;0.60;;;0.60;;
21539;SDS011;10931;52.164;5.518;2023-05-21T02:23:50;0.80;;;0.77;;
21539;SDS011;10931;52.164;5.518;2023-05-21T02:26:19;1.20;;;0.80;;
21539;SDS011;10931;52.164;5.518;2023-05-21T02:28:46;0.93;;;0.63;;
21539;SDS011;10931;52.164;5.518;2023-05-21T02:31:12;0.77;;;0.70;;
21539;SDS011;10931;52.164;5.518;2023-05-21T02:33:41;0.65;;;0.60;;
21539;SDS011;10931;52.164;5.518;2023-05-21T02:36:06;0.90;;;0.70;;
21539;SDS011;10931;52.164;5.518;2023-05-21T02:38:40;0.60;;;0.60;;
21539;SDS011;10931;52.164;5.518;2023-05-21T02:41:11;0.70;;;0.70;;
21539;SDS011;10931;52.164;5.518;2023-05-21T02:43:37;0.68;;;0.63;;
21539;SDS011;10931;52.164;5.518;2023-05-21T02:46:04;0.95;;;0.70;;
21539;SDS011;10931;52.164;5.518;2023-05-21T02:48:31;0.63;;;0.55;;
21539;SDS011;10931;52.164;5.518;2023-05-21T02:50:57;0.68;;;0.60;;
21539;SDS011;10931;52.164;5.518;2023-05-21T02:53:23;0.90;;;0.70;;
21539;SDS011;10931;52.164;5.518;2023-05-21T02:55:48;0.88;;;0.70;;
21539;SDS011;10931;52.164;5.518;2023-05-21T02:58:14;0.63;;;0.63;;
21539;SDS011;10931;52.164;5.518;2023-05-21T03:00:40;1.42;;;0.88;;
21539;SDS011;10931;52.164;5.518;2023-05-21T03:03:06;0.75;;;0.73;;
21539;SDS011;10931;52.164;5.518;2023-05-21T03:05:32;0.55;;;0.50;;
21539;SDS011;10931;52.164;5.518;2023-05-21T03:07:57;0.93;;;0.70;;
21539;SDS011;10931;52.164;5.518;2023-05-21T03:10:23;1.25;;;0.95;;
21539;SDS011;10931;52.164;5.518;2023-05-21T03:12:49;0.98;;;0.68;;
21539;SDS011;10931;52.164;5.518;2023-05-21T03:15:14;1.70;;;0.95;;
21539;SDS011;10931;52.164;5.518;2023-05-21T03:17:48;0.95;;;0.77;;
21539;SDS011;10931;52.164;5.518;2023-05-21T03:20:14;0.80;;;0.50;;
21539;SDS011;10931;52.164;5.518;2023-05-21T03:22:42;1.05;;;0.70;;
21539;SDS011;10931;52.164;5.518;2023-05-21T03:25:09;0.98;;;0.60;;
21539;SDS011;10931;52.164;5.518;2023-05-21T03:27:36;0.63;;;0.57;;
21539;SDS011;10931;52.164;5.518;2023-05-21T03:30:02;1.25;;;0.63;;
21539;SDS011;10931;52.164;5.518;2023-05-21T03:32:29;1.10;;;0.70;;
21539;SDS011;10931;52.164;5.518;2023-05-21T03:34:57;0.73;;;0.70;;
21539;SDS011;10931;52.164;5.518;2023-05-21T03:37:23;0.95;;;0.73;;
21539;SDS011;10931;52.164;5.518;2023-05-21T03:39:49;0.95;;;0.70;;
21539;SDS011;10931;52.164;5.518;2023-05-21T03:42:15;2.53;;;0.68;;
21539;SDS011;10931;52.164;5.518;2023-05-21T03:44:40;1.55;;;0.77;;
21539;SDS011;10931;52.164;5.518;2023-05-21T03:47:06;1.10;;;0.70;;
21539;SDS011;10931;52.164;5.518;2023-05-21T03:49:32;1.10;;;0.70;;
21539;SDS011;10931;52.164;5.518;2023-05-21T03:51:57;1.73;;;0.70;;
21539;SDS011;10931;52.164;5.518;2023-05-21T03:54:23;0.95;;;0.85;;
21539;SDS011;10931;52.164;5.518;2023-05-21T03:56:49;0.85;;;0.63;;
21539;SDS011;10931;52.164;5.518;2023-05-21T03:59:15;1.10;;;0.68;;
21539;SDS011;10931;52.164;5.518;2023-05-21T04:01:43;0.90;;;0.70;;
21539;SDS011;10931;52.164;5.518;2023-05-21T04:04:09;0.77;;;0.70;;
21539;SDS011;10931;52.164;5.518;2023-05-21T04:06:35;1.38;;;0.88;;
21539;SDS011;10931;52.164;5.518;2023-05-21T04:09:03;0.85;;;0.70;;
21539;SDS011;10931;52.164;5.518;2023-05-21T04:11:29;1.10;;;0.80;;
21539;SDS011;10931;52.164;5.518;2023-05-21T04:13:55;1.38;;;0.80;;
21539;SDS011;10931;52.164;5.518;2023-05-21T04:16:21;0.70;;;0.60;;
21539;SDS011;10931;52.164;5.518;2023-05-21T04:18:48;0.73;;;0.60;;
21539;SDS011;10931;52.164;5.518;2023-05-21T04:21:14;0.95;;;0.80;;
21539;SDS011;10931;52.164;5.518;2023-05-21T04:23:40;1.42;;;0.82;;
21539;SDS011;10931;52.164;5.518;2023-05-21T04:26:06;1.95;;;0.90;;
21539;SDS011;10931;52.164;5.518;2023-05-21T04:28:31;0.80;;;0.65;;
21539;SDS011;10931;52.164;5.518;2023-05-21T04:30:57;1.02;;;0.82;;
21539;SDS011;10931;52.164;5.518;2023-05-21T04:33:23;1.38;;;0.90;;
21539;SDS011;10931;52.164;5.518;2023-05-21T04:35:50;1.95;;;1.10;;
21539;SDS011;10931;52.164;5.518;2023-05-21T04:38:16;1.42;;;0.90;;
21539;SDS011;10931;52.164;5.518;2023-05-21T04:40:48;1.13;;;0.73;;
21539;SDS011;10931;52.164;5.518;2023-05-21T04:43:15;1.60;;;1.13;;
21539;SDS011;10931;52.164;5.518;2023-05-21T04:45:41;0.70;;;0.70;;
21539;SDS011;10931;52.164;5.518;2023-05-21T04:48:07;0.88;;;0.63;;
21539;SDS011;10931;52.164;5.518;2023-05-21T04:50:33;1.10;;;0.80;;
21539;SDS011;10931;52.164;5.518;2023-05-21T04:52:59;1.00;;;0.85;;
21539;SDS011;10931;52.164;5.518;2023-05-21T04:55:28;0.95;;;0.70;;
21539;SDS011;10931;52.164;5.518;2023-05-21T04:57:53;1.48;;;0.93;;
21539;SDS011;10931;52.164;5.518;2023-05-21T05:00:19;0.85;;;0.73;;
21539;SDS011;10931;52.164;5.518;2023-05-21T05:02:46;0.70;;;0.60;;
21539;SDS011;10931;52.164;5.518;2023-05-21T05:05:12;1.67;;;0.90;;
21539;SDS011;10931;52.164;5.518;2023-05-21T05:07:37;1.02;;;0.73;;
21539;SDS011;10931;52.164;5.518;2023-05-21T05:10:03;1.55;;;1.08;;
21539;SDS011;10931;52.164;5.518;2023-05-21T05:12:29;1.10;;;0.73;;
21539;SDS011;10931;52.164;5.518;2023-05-21T05:14:55;1.60;;;0.80;;
21539;SDS011;10931;52.164;5.518;2023-05-21T05:17:20;1.27;;;0.80;;
21539;SDS011;10931;52.164;5.518;2023-05-21T05:19:46;2.35;;;0.90;;
21539;SDS011;10931;52.164;5.518;2023-05-21T05:22:12;1.52;;;1.00;;
21539;SDS011;10931;52.164;5.518;2023-05-21T05:24:37;0.75;;;0.75;;
21539;SDS011;10931;52.164;5.518;2023-05-21T05:27:03;1.17;;;0.70;;
21539;SDS011;10931;52.164;5.518;2023-05-21T05:29:29;1.48;;;0.80;;
21539;SDS011;10931;52.164;5.518;2023-05-21T05:31:54;0.95;;;0.70;;
21539;SDS011;10931;52.164;5.518;2023-05-21T05:34:20;1.10;;;0.77;;
21539;SDS011;10931;52.164;5.518;2023-05-21T05:36:46;1.70;;;0.98;;
21539;SDS011;10931;52.164;5.518;2023-05-21T05:39:14;1.00;;;0.77;;
21539;SDS011;10931;52.164;5.518;2023-05-21T05:41:40;1.30;;;0.80;;
21539;SDS011;10931;52.164;5.518;2023-05-21T05:44:06;1.13;;;0.90;;
21539;SDS011;10931;52.164;5.518;2023-05-21T05:46:31;1.60;;;1.10;;
21539;SDS011;10931;52.164;5.518;2023-05-21T05:48:57;1.23;;;0.95;;
21539;SDS011;10931;52.164;5.518;2023-05-21T05:51:23;0.93;;;0.80;;
21539;SDS011;10931;52.164;5.518;2023-05-21T05:53:48;1.20;;;0.95;;
21539;SDS011;10931;52.164;5.518;2023-05-21T05:56:14;1.38;;;0.95;;
21539;SDS011;10931;52.164;5.518;2023-05-21T05:58:41;1.65;;;1.10;;
21539;SDS011;10931;52.164;5.518;2023-05-21T06:01:08;1.15;;;0.88;;
21539;SDS011;10931;52.164;5.518;2023-05-21T06:03:33;1.30;;;0.98;;
21539;SDS011;10931;52.164;5.518;2023-05-21T06:05:59;1.40;;;0.90;;
21539;SDS011;10931;52.164;5.518;2023-05-21T06:08:25;1.17;;;0.93;;
21539;SDS011;10931;52.164;5.518;2023-05-21T06:10:50;1.45;;;1.02;;
21539;SDS011;10931;52.164;5.518;2023-05-21T06:13:16;2.13;;;1.30;;
21539;SDS011;10931;52.164;5.518;2023-05-21T06:15:44;1.33;;;1.10;;
21539;SDS011;10931;52.164;5.518;2023-05-21T06:18:10;1.45;;;1.13;;
21539;SDS011;10931;52.164;5.518;2023-05-21T06:20:35;1.48;;;1.00;;
21539;SDS011;10931;52.164;5.518;2023-05-21T06:23:01;1.38;;;0.82;;
21539;SDS011;10931;52.164;5.518;2023-05-21T06:25:27;1.95;;;1.20;;
21539;SDS011;10931;52.164;5.518;2023-05-21T06:27:52;2.55;;;1.48;;
21539;SDS011;10931;52.164;5.518;2023-05-21T06:30:18;3.53;;;1.60;;
21539;SDS011;10931;52.164;5.518;2023-05-21T06:32:43;1.98;;;1.48;;
21539;SDS011;10931;52.164;5.518;2023-05-21T06:35:09;1.98;;;1.48;;
21539;SDS011;10931;52.164;5.518;2023-05-21T06:37:37;2.67;;;1.40;;
21539;SDS011;10931;52.164;5.518;2023-05-21T06:40:03;2.08;;;1.48;;
21539;SDS011;10931;52.164;5.518;2023-05-21T06:42:29;1.52;;;1.25;;
21539;SDS011;10931;52.164;5.518;2023-05-21T06:44:55;1.73;;;1.20;;
21539;SDS011;10931;52.164;5.518;2023-05-21T06:47:21;1.85;;;1.38;;
21539;SDS011;10931;52.164;5.518;2023-05-21T06:49:46;1.55;;;1.20;;
21539;SDS011;10931;52.164;5.518;2023-05-21T06:52:12;1.65;;;1.20;;
21539;SDS011;10931;52.164;5.518;2023-05-21T06:54:38;2.85;;;1.45;;
21539;SDS011;10931;52.164;5.518;2023-05-21T06:57:03;2.20;;;1.60;;
21539;SDS011;10931;52.164;5.518;2023-05-21T06:59:29;2.30;;;1.25;;
21539;SDS011;10931;52.164;5.518;2023-05-21T07:01:55;2.15;;;1.40;;
21539;SDS011;10931;52.164;5.518;2023-05-21T07:04:21;2.15;;;1.20;;
21539;SDS011;10931;52.164;5.518;2023-05-21T07:06:46;1.38;;;1.05;;
21539;SDS011;10931;52.164;5.518;2023-05-21T07:09:16;2.22;;;1.40;;
21539;SDS011;10931;52.164;5.518;2023-05-21T07:11:42;1.85;;;1.17;;
21539;SDS011;10931;52.164;5.518;2023-05-21T07:14:08;1.38;;;1.10;;
21539;SDS011;10931;52.164;5.518;2023-05-21T07:16:34;1.20;;;1.10;;
21539;SDS011;10931;52.164;5.518;2023-05-21T07:19:03;1.20;;;1.00;;
21539;SDS011;10931;52.164;5.518;2023-05-21T07:21:28;1.92;;;1.23;;
21539;SDS011;10931;52.164;5.518;2023-05-21T07:23:54;1.40;;;1.17;;
21539;SDS011;10931;52.164;5.518;2023-05-21T07:26:20;1.70;;;1.10;;
21539;SDS011;10931;52.164;5.518;2023-05-21T07:28:46;1.85;;;1.10;;
21539;SDS011;10931;52.164;5.518;2023-05-21T07:31:11;2.05;;;1.13;;
21539;SDS011;10931;52.164;5.518;2023-05-21T07:33:37;2.33;;;1.33;;
21539;SDS011;10931;52.164;5.518;2023-05-21T07:36:10;1.48;;;1.33;;
21539;SDS011;10931;52.164;5.518;2023-05-21T07:38:39;1.85;;;1.40;;
21539;SDS011;10931;52.164;5.518;2023-05-21T07:44:01;1.30;;;1.10;;
21539;SDS011;10931;52.164;5.518;2023-05-21T07:46:35;2.10;;;1.52;;
21539;SDS011;10931;52.164;5.518;2023-05-21T07:49:04;2.22;;;1.48;;
21539;SDS011;10931;52.164;5.518;2023-05-21T07:51:51;2.20;;;1.52;;
21539;SDS011;10931;52.164;5.518;2023-05-21T07:54:21;2.47;;;1.40;;
21539;SDS011;10931;52.164;5.518;2023-05-21T07:56:55;2.35;;;1.30;;
21539;SDS011;10931;52.164;5.518;2023-05-21T07:59:28;2.47;;;1.10;;
21539;SDS011;10931;52.164;5.518;2023-05-21T08:01:54;1.60;;;1.35;;
21539;SDS011;10931;52.164;5.518;2023-05-21T08:04:19;1.80;;;1.45;;
21539;SDS011;10931;52.164;5.518;2023-05-21T08:06:50;4.40;;;1.23;;
21539;SDS011;10931;52.164;5.518;2023-05-21T08:09:23;1.67;;;1.20;;
21539;SDS011;10931;52.164;5.518;2023-05-21T08:11:48;1.30;;;1.20;;
21539;SDS011;10931;52.164;5.518;2023-05-21T08:14:14;1.80;;;1.40;;
21539;SDS011;10931;52.164;5.518;2023-05-21T08:16:40;3.33;;;1.60;;
21539;SDS011;10931;52.164;5.518;2023-05-21T08:19:05;2.25;;;1.33;;
21539;SDS011;10931;52.164;5.518;2023-05-21T08:21:31;3.38;;;1.38;;
21539;SDS011;10931;52.164;5.518;2023-05-21T08:23:58;2.33;;;1.38;;
21539;SDS011;10931;52.164;5.518;2023-05-21T08:26:24;1.98;;;1.40;;
21539;SDS011;10931;52.164;5.518;2023-05-21T08:28:50;2.13;;;1.50;;
21539;SDS011;10931;52.164;5.518;2023-05-21T08:33:52;2.85;;;1.50;;
21539;SDS011;10931;52.164;5.518;2023-05-21T08:36:20;1.48;;;1.30;;
21539;SDS011;10931;52.164;5.518;2023-05-21T08:38:46;2.17;;;1.20;;
21539;SDS011;10931;52.164;5.518;2023-05-21T08:41:12;4.38;;;1.33;;
21539;SDS011;10931;52.164;5.518;2023-05-21T08:43:40;3.20;;;1.67;;
21539;SDS011;10931;52.164;5.518;2023-05-21T08:46:15;2.47;;;1.40;;
21539;SDS011;10931;52.164;5.518;2023-05-21T08:48:52;1.50;;;1.17;;
21539;SDS011;10931;52.164;5.518;2023-05-21T08:51:20;3.03;;;1.50;;
21539;SDS011;10931;52.164;5.518;2023-05-21T08:53:49;1.77;;;1.20;;
21539;SDS011;10931;52.164;5.518;2023-05-21T08:56:26;2.58;;;1.60;;
21539;SDS011;10931;52.164;5.518;2023-05-21T08:58:52;2.08;;;1.30;;
21539;SDS011;10931;52.164;5.518;2023-05-21T09:01:21;2.38;;;1.17;;
21539;SDS011;10931;52.164;5.518;2023-05-21T09:03:52;3.05;;;1.30;;
21539;SDS011;10931;52.164;5.518;2023-05-21T09:06:28;2.58;;;1.50;;
21539;SDS011;10931;52.164;5.518;2023-05-21T09:09:10;2.45;;;1.52;;
21539;SDS011;10931;52.164;5.518;2023-05-21T09:11:42;1.95;;;1.38;;
21539;SDS011;10931;52.164;5.518;2023-05-21T09:14:10;3.78;;;1.95;;
21539;SDS011;10931;52.164;5.518;2023-05-21T09:16:37;2.35;;;1.67;;
21539;SDS011;10931;52.164;5.518;2023-05-21T09:19:02;1.88;;;1.38;;
21539;SDS011;10931;52.164;5.518;2023-05-21T09:21:31;2.30;;;1.42;;
21539;SDS011;10931;52.164;5.518;2023-05-21T09:24:05;2.13;;;1.58;;
21539;SDS011;10931;52.164;5.518;2023-05-21T09:26:42;2.75;;;1.73;;
21539;SDS011;10931;52.164;5.518;2023-05-21T09:29:08;5.20;;;1.80;;
21539;SDS011;10931;52.164;5.518;2023-05-21T09:31:34;2.67;;;1.55;;
21539;SDS011;10931;52.164;5.518;2023-05-21T09:34:00;2.45;;;1.60;;
21539;SDS011;10931;52.164;5.518;2023-05-21T09:36:26;2.42;;;1.58;;
21539;SDS011;10931;52.164;5.518;2023-05-21T09:38:58;1.75;;;1.50;;
21539;SDS011;10931;52.164;5.518;2023-05-21T09:41:33;2.25;;;1.60;;
21539;SDS011;10931;52.164;5.518;2023-05-21T09:44:00;2.20;;;1.52;;
21539;SDS011;10931;52.164;5.518;2023-05-21T09:47:00;2.13;;;1.65;;
21539;SDS011;10931;52.164;5.518;2023-05-21T09:49:35;3.55;;;1.58;;
21539;SDS011;10931;52.164;5.518;2023-05-21T09:52:12;3.15;;;2.15;;
21539;SDS011;10931;52.164;5.518;2023-05-21T09:55:10;2.30;;;1.60;;
21539;SDS011;10931;52.164;5.518;2023-05-21T09:57:40;1.92;;;1.48;;
21539;SDS011;10931;52.164;5.518;2023-05-21T10:00:09;3.72;;;1.75;;
21539;SDS011;10931;52.164;5.518;2023-05-21T10:02:53;2.30;;;1.67;;
21539;SDS011;10931;52.164;5.518;2023-05-21T10:05:21;1.80;;;1.42;;
21539;SDS011;10931;52.164;5.518;2023-05-21T10:07:52;2.92;;;1.70;;
21539;SDS011;10931;52.164;5.518;2023-05-21T10:10:23;2.58;;;1.70;;
21539;SDS011;10931;52.164;5.518;2023-05-21T10:13:03;3.03;;;1.95;;
21539;SDS011;10931;52.164;5.518;2023-05-21T10:15:34;2.10;;;1.80;;
21539;SDS011;10931;52.164;5.518;2023-05-21T10:18:05;2.97;;;1.98;;
21539;SDS011;10931;52.164;5.518;2023-05-21T10:20:37;4.22;;;1.90;;
21539;SDS011;10931;52.164;5.518;2023-05-21T10:23:03;2.70;;;1.92;;
21539;SDS011;10931;52.164;5.518;2023-05-21T10:25:32;2.95;;;1.95;;
21539;SDS011;10931;52.164;5.518;2023-05-21T10:27:58;2.15;;;1.67;;
21539;SDS011;10931;52.164;5.518;2023-05-21T10:30:25;4.03;;;1.70;;
21539;SDS011;10931;52.164;5.518;2023-05-21T10:32:52;2.58;;;1.75;;
21539;SDS011;10931;52.164;5.518;2023-05-21T10:35:22;3.30;;;2.00;;
21539;SDS011;10931;52.164;5.518;2023-05-21T10:37:48;3.45;;;2.08;;
21539;SDS011;10931;52.164;5.518;2023-05-21T10:40:18;1.98;;;1.77;;
21539;SDS011;10931;52.164;5.518;2023-05-21T10:48:51;2.30;;;2.10;;
21539;SDS011;10931;52.164;5.518;2023-05-21T10:51:39;2.28;;;1.80;;
21539;SDS011;10931;52.164;5.518;2023-05-21T11:00:12;2.63;;;1.65;;
21539;SDS011;10931;52.164;5.518;2023-05-21T11:02:40;3.22;;;2.00;;
21539;SDS011;10931;52.164;5.518;2023-05-21T11:10:57;4.13;;;2.03;;
21539;SDS011;10931;52.164;5.518;2023-05-21T11:13:43;3.88;;;1.90;;
21539;SDS011;10931;52.164;5.518;2023-05-21T11:16:13;3.38;;;2.03;;
21539;SDS011;10931;52.164;5.518;2023-05-21T11:21:09;3.47;;;2.40;;
21539;SDS011;10931;52.164;5.518;2023-05-21T11:26:15;3.22;;;1.98;;
21539;SDS011;10931;52.164;5.518;2023-05-21T11:29:08;2.05;;;1.80;;
21539;SDS011;10931;52.164;5.518;2023-05-21T11:31:58;2.95;;;2.10;;
21539;SDS011;10931;52.164;5.518;2023-05-21T11:34:44;3.55;;;2.35;;
21539;SDS011;10931;52.164;5.518;2023-05-21T11:50:44;5.05;;;2.30;;
21539;SDS011;10931;52.164;5.518;2023-05-21T11:53:13;3.65;;;2.67;;
21539;SDS011;10931;52.164;5.518;2023-05-21T11:55:41;3.42;;;2.65;;
21539;SDS011;10931;52.164;5.518;2023-05-21T13:07:41;4.78;;;3.67;;
21539;SDS011;10931;52.164;5.518;2023-05-21T16:43:04;3.75;;;3.33;;
21539;SDS011;10931;52.164;5.518;2023-05-21T16:45:40;5.25;;;3.42;;
21539;SDS011;10931;52.164;5.518;2023-05-21T16:51:03;4.93;;;3.80;;
21539;SDS011;10931;52.164;5.518;2023-05-21T16:53:34;4.30;;;3.30;;
21539;SDS011;10931;52.164;5.518;2023-05-21T16:56:00;4.40;;;3.33;;
21539;SDS011;10931;52.164;5.518;2023-05-21T17:29:30;4.45;;;3.53;;
21539;SDS011;10931;52.164;5.518;2023-05-21T17:31:59;5.55;;;3.50;;
21539;SDS011;10931;52.164;5.518;2023-05-21T17:55:16;3.63;;;2.70;;
21539;SDS011;10931;52.164;5.518;2023-05-21T19:41:39;4.40;;;2.90;;
21539;SDS011;10931;52.164;5.518;2023-05-21T19:53:05;2.75;;;2.50;;
21539;SDS011;10931;52.164;5.518;2023-05-21T20:49:04;2.42;;;2.22;;
21539;SDS011;10931;52.164;5.518;2023-05-21T20:51:30;3.38;;;2.33;;
21539;SDS011;10931;52.164;5.518;2023-05-21T20:53:58;2.95;;;2.33;;
21539;SDS011;10931;52.164;5.518;2023-05-21T20:56:24;3.63;;;2.10;;
21539;SDS011;10931;52.164;5.518;2023-05-21T20:58:55;3.13;;;2.22;;
21539;SDS011;10931;52.164;5.518;2023-05-21T21:04:11;2.35;;;2.15;;
21539;SDS011;10931;52.164;5.518;2023-05-21T21:06:44;2.97;;;2.47;;
21539;SDS011;10931;52.164;5.518;2023-05-21T21:09:12;3.22;;;2.22;;
21539;SDS011;10931;52.164;5.518;2023-05-21T21:11:37;2.90;;;2.30;;
21539;SDS011;10931;52.164;5.518;2023-05-21T21:14:03;2.72;;;2.22;;
21539;SDS011;10931;52.164;5.518;2023-05-21T21:16:30;2.88;;;2.40;;
21539;SDS011;10931;52.164;5.518;2023-05-21T21:18:58;3.67;;;2.17;;
21539;SDS011;10931;52.164;5.518;2023-05-21T21:21:23;2.00;;;1.80;;
21539;SDS011;10931;52.164;5.518;2023-05-21T21:23:49;2.85;;;1.85;;
21539;SDS011;10931;52.164;5.518;2023-05-21T21:26:15;2.85;;;2.20;;
21539;SDS011;10931;52.164;5.518;2023-05-21T21:28:41;3.38;;;2.22;;
21539;SDS011;10931;52.164;5.518;2023-05-21T21:31:07;3.50;;;2.33;;
21539;SDS011;10931;52.164;5.518;2023-05-21T21:33:33;3.05;;;2.22;;
21539;SDS011;10931;52.164;5.518;2023-05-21T21:35:59;2.70;;;2.00;;
21539;SDS011;10931;52.164;5.518;2023-05-21T21:38:27;2.92;;;2.25;;
21539;SDS011;10931;52.164;5.518;2023-05-21T21:40:53;3.70;;;2.58;;
21539;SDS011;10931;52.164;5.518;2023-05-21T21:43:19;3.67;;;2.03;;
21539;SDS011;10931;52.164;5.518;2023-05-21T21:45:51;2.53;;;2.33;;
21539;SDS011;10931;52.164;5.518;2023-05-21T21:48:19;2.95;;;2.15;;
21539;SDS011;10931;52.164;5.518;2023-05-21T21:50:45;3.03;;;2.70;;
21539;SDS011;10931;52.164;5.518;2023-05-21T21:53:10;3.50;;;2.17;;
21539;SDS011;10931;52.164;5.518;2023-05-21T21:55:37;2.22;;;1.92;;
21539;SDS011;10931;52.164;5.518;2023-05-21T21:58:03;4.13;;;2.08;;
21539;SDS011;10931;52.164;5.518;2023-05-21T22:00:32;3.20;;;2.15;;
21539;SDS011;10931;52.164;5.518;2023-05-21T22:03:01;3.42;;;2.08;;
21539;SDS011;10931;52.164;5.518;2023-05-21T22:05:29;2.60;;;2.10;;
21539;SDS011;10931;52.164;5.518;2023-05-21T22:07:57;3.08;;;2.00;;
21539;SDS011;10931;52.164;5.518;2023-05-21T22:10:23;2.58;;;2.00;;
21539;SDS011;10931;52.164;5.518;2023-05-21T22:12:49;2.20;;;1.80;;
21539;SDS011;10931;52.164;5.518;2023-05-21T22:15:18;2.83;;;1.98;;
21539;SDS011;10931;52.164;5.518;2023-05-21T22:17:50;2.42;;;1.85;;
21539;SDS011;10931;52.164;5.518;2023-05-21T22:20:19;2.72;;;1.95;;
21539;SDS011;10931;52.164;5.518;2023-05-21T22:22:50;2.25;;;1.70;;
21539;SDS011;10931;52.164;5.518;2023-05-21T22:25:18;4.90;;;2.35;;
21539;SDS011;10931;52.164;5.518;2023-05-21T22:27:44;2.03;;;1.70;;
21539;SDS011;10931;52.164;5.518;2023-05-21T22:30:10;2.78;;;1.95;;
21539;SDS011;10931;52.164;5.518;2023-05-21T22:32:36;2.40;;;1.85;;
21539;SDS011;10931;52.164;5.518;2023-05-21T22:35:02;2.85;;;1.77;;
21539;SDS011;10931;52.164;5.518;2023-05-21T22:37:28;2.60;;;2.00;;
21539;SDS011;10931;52.164;5.518;2023-05-21T22:40:01;1.80;;;1.50;;
21539;SDS011;10931;52.164;5.518;2023-05-21T22:42:30;2.42;;;2.08;;
21539;SDS011;10931;52.164;5.518;2023-05-21T22:45:04;3.00;;;1.70;;
21539;SDS011;10931;52.164;5.518;2023-05-21T22:47:33;2.05;;;1.52;;
21539;SDS011;10931;52.164;5.518;2023-05-21T22:50:05;2.38;;;1.77;;
21539;SDS011;10931;52.164;5.518;2023-05-21T22:52:32;2.58;;;2.00;;
21539;SDS011;10931;52.164;5.518;2023-05-21T22:54:58;2.63;;;1.80;;
21539;SDS011;10931;52.164;5.518;2023-05-21T22:57:28;1.88;;;1.67;;
21539;SDS011;10931;52.164;5.518;2023-05-21T23:00:00;2.05;;;1.70;;
21539;SDS011;10931;52.164;5.518;2023-05-21T23:02:26;2.10;;;1.70;;
21539;SDS011;10931;52.164;5.518;2023-05-21T23:04:53;2.45;;;1.60;;
21539;SDS011;10931;52.164;5.518;2023-05-21T23:07:18;3.22;;;1.75;;
21539;SDS011;10931;52.164;5.518;2023-05-21T23:09:45;2.35;;;1.88;;
21539;SDS011;10931;52.164;5.518;2023-05-21T23:12:11;2.80;;;1.90;;
21539;SDS011;10931;52.164;5.518;2023-05-21T23:14:39;2.05;;;1.52;;
21539;SDS011;10931;52.164;5.518;2023-05-21T23:17:08;2.00;;;1.67;;
21539;SDS011;10931;52.164;5.518;2023-05-21T23:19:34;1.98;;;1.65;;
21539;SDS011;10931;52.164;5.518;2023-05-21T23:22:00;1.95;;;1.55;;
21539;SDS011;10931;52.164;5.518;2023-05-21T23:24:25;2.75;;;1.90;;
21539;SDS011;10931;52.164;5.518;2023-05-21T23:26:58;2.05;;;1.65;;
21539;SDS011;10931;52.164;5.518;2023-05-21T23:29:27;2.80;;;2.15;;
21539;SDS011;10931;52.164;5.518;2023-05-21T23:31:53;1.73;;;1.35;;
21539;SDS011;10931;52.164;5.518;2023-05-21T23:34:19;1.65;;;1.50;;
21539;SDS011;10931;52.164;5.518;2023-05-21T23:36:45;2.70;;;2.05;;
21539;SDS011;10931;52.164;5.518;2023-05-21T23:39:12;2.13;;;1.80;;
21539;SDS011;10931;52.164;5.518;2023-05-21T23:41:37;3.33;;;2.10;;
21539;SDS011;10931;52.164;5.518;2023-05-21T23:44:03;3.13;;;2.10;;
21539;SDS011;10931;52.164;5.518;2023-05-21T23:46:29;1.52;;;1.42;;
21539;SDS011;10931;52.164;5.518;2023-05-21T23:48:57;2.47;;;1.63;;
21539;SDS011;10931;52.164;5.518;2023-05-21T23:51:22;1.75;;;1.60;;
21539;SDS011;10931;52.164;5.518;2023-05-21T23:53:48;2.38;;;1.95;;
21539;SDS011;10931;52.164;5.518;2023-05-21T23:56:14;2.50;;;1.95;;
21539;SDS011;10931;52.164;5.518;2023-05-21T23:58:40;2.20;;;1.70;;
